sensor_id;sensor_type;location;lat;lon;timestamp;pressure;altitude;pressure_sealevel;temperature;humidity
9709;BME280;4893;42.024;23.098;2022-10-18T00:01:53;98415.19;;;5.02;100.00
9709;BME280;4893;42.024;23.098;2022-10-18T00:04:19;98431.44;;;5.15;100.00
9709;BME280;4893;42.024;23.098;2022-10-18T00:06:44;98436.97;;;5.34;100.00
9709;BME280;4893;42.024;23.098;2022-10-18T00:09:10;98410.81;;;5.27;100.00
9709;BME280;4893;42.024;23.098;2022-10-18T00:11:35;98433.13;;;5.52;100.00
9709;BME280;4893;42.024;23.098;2022-10-18T00:14:01;98417.81;;;5.38;100.00
9709;BME280;4893;42.024;23.098;2022-10-18T00:16:32;98430.56;;;5.52;100.00
9709;BME280;4893;42.024;23.098;2022-10-18T00:18:58;98424.56;;;5.51;100.00
9709;BME280;4893;42.024;23.098;2022-10-18T00:21:24;98419.31;;;5.53;100.00
9709;BME280;4893;42.024;23.098;2022-10-18T00:23:52;98418.50;;;5.52;100.00
9709;BME280;4893;42.024;23.098;2022-10-18T00:26:28;98414.06;;;5.54;100.00
9709;BME280;4893;42.024;23.098;2022-10-18T00:29:00;98424.56;;;5.51;100.00
9709;BME280;4893;42.024;23.098;2022-10-18T00:31:36;98415.13;;;5.39;100.00
9709;BME280;4893;42.024;23.098;2022-10-18T00:34:05;98422.34;;;5.34;100.00
9709;BME280;4893;42.024;23.098;2022-10-18T00:36:32;98417.13;;;4.98;100.00
9709;BME280;4893;42.024;23.098;2022-10-18T00:38:59;98408.38;;;5.13;100.00
9709;BME280;4893;42.024;23.098;2022-10-18T00:41:27;98399.09;;;5.23;100.00
9709;BME280;4893;42.024;23.098;2022-10-18T00:46:39;98400.91;;;5.34;100.00
9709;BME280;4893;42.024;23.098;2022-10-18T00:49:16;98404.31;;;5.34;100.00
9709;BME280;4893;42.024;23.098;2022-10-18T00:51:49;98386.00;;;5.26;100.00
9709;BME280;4893;42.024;23.098;2022-10-18T00:54:18;98394.94;;;5.33;100.00
9709;BME280;4893;42.024;23.098;2022-10-18T00:56:45;98396.81;;;5.31;100.00
9709;BME280;4893;42.024;23.098;2022-10-18T00:59:17;98391.44;;;5.34;100.00
9709;BME280;4893;42.024;23.098;2022-10-18T01:01:43;98388.16;;;5.32;100.00
9709;BME280;4893;42.024;23.098;2022-10-18T01:04:13;98365.09;;;5.06;100.00
9709;BME280;4893;42.024;23.098;2022-10-18T01:10:10;98377.50;;;5.01;100.00
9709;BME280;4893;42.024;23.098;2022-10-18T01:15:26;98376.88;;;4.97;100.00
9709;BME280;4893;42.024;23.098;2022-10-18T01:26:51;98366.06;;;4.92;100.00
9709;BME280;4893;42.024;23.098;2022-10-18T01:32:11;98371.94;;;4.94;100.00
9709;BME280;4893;42.024;23.098;2022-10-18T01:34:39;98369.75;;;4.88;100.00
9709;BME280;4893;42.024;23.098;2022-10-18T01:37:10;98346.41;;;4.66;100.00
9709;BME280;4893;42.024;23.098;2022-10-18T01:39:37;98364.72;;;4.87;100.00
9709;BME280;4893;42.024;23.098;2022-10-18T01:42:08;98363.09;;;4.73;100.00
9709;BME280;4893;42.024;23.098;2022-10-18T01:44:40;98336.13;;;4.66;100.00
9709;BME280;4893;42.024;23.098;2022-10-18T01:47:08;98360.28;;;4.64;100.00
9709;BME280;4893;42.024;23.098;2022-10-18T01:49:38;98365.75;;;4.47;100.00
9709;BME280;4893;42.024;23.098;2022-10-18T01:52:03;98365.97;;;4.31;100.00
9709;BME280;4893;42.024;23.098;2022-10-18T01:54:38;98368.31;;;4.34;100.00
9709;BME280;4893;42.024;23.098;2022-10-18T01:57:31;98375.41;;;4.31;100.00
9709;BME280;4893;42.024;23.098;2022-10-18T02:02:55;98353.00;;;4.45;100.00
9709;BME280;4893;42.024;23.098;2022-10-18T02:10:48;98372.34;;;4.63;100.00
9709;BME280;4893;42.024;23.098;2022-10-18T02:13:19;98375.44;;;4.68;100.00
9709;BME280;4893;42.024;23.098;2022-10-18T02:15:53;98369.06;;;4.61;100.00
9709;BME280;4893;42.024;23.098;2022-10-18T02:18:31;98367.41;;;4.60;100.00
9709;BME280;4893;42.024;23.098;2022-10-18T02:21:15;98368.22;;;4.61;100.00
9709;BME280;4893;42.024;23.098;2022-10-18T02:23:44;98358.66;;;4.50;100.00
9709;BME280;4893;42.024;23.098;2022-10-18T02:26:17;98365.84;;;4.58;100.00
9709;BME280;4893;42.024;23.098;2022-10-18T02:28:43;98361.75;;;4.55;100.00
9709;BME280;4893;42.024;23.098;2022-10-18T02:31:21;98370.28;;;4.56;100.00
9709;BME280;4893;42.024;23.098;2022-10-18T02:34:05;98360.50;;;4.48;100.00
9709;BME280;4893;42.024;23.098;2022-10-18T02:36:45;98355.56;;;4.45;100.00
9709;BME280;4893;42.024;23.098;2022-10-18T02:39:18;98336.22;;;4.27;100.00
9709;BME280;4893;42.024;23.098;2022-10-18T02:41:47;98367.19;;;4.38;100.00
9709;BME280;4893;42.024;23.098;2022-10-18T02:44:13;98360.81;;;4.31;100.00
9709;BME280;4893;42.024;23.098;2022-10-18T02:46:39;98347.72;;;4.21;100.00
9709;BME280;4893;42.024;23.098;2022-10-18T02:49:05;98359.56;;;4.24;100.00
9709;BME280;4893;42.024;23.098;2022-10-18T02:51:32;98376.91;;;4.20;100.00
9709;BME280;4893;42.024;23.098;2022-10-18T02:54:00;98368.34;;;4.07;100.00
9709;BME280;4893;42.024;23.098;2022-10-18T02:56:49;98368.88;;;4.12;100.00
9709;BME280;4893;42.024;23.098;2022-10-18T02:59:17;98369.72;;;4.13;100.00
9709;BME280;4893;42.024;23.098;2022-10-18T03:01:59;98358.47;;;4.01;100.00
9709;BME280;4893;42.024;23.098;2022-10-18T03:05:00;98384.09;;;4.15;100.00
9709;BME280;4893;42.024;23.098;2022-10-18T03:10:42;98379.34;;;3.97;100.00
9709;BME280;4893;42.024;23.098;2022-10-18T03:13:46;98378.22;;;4.01;100.00
9709;BME280;4893;42.024;23.098;2022-10-18T03:16:38;98371.81;;;3.94;100.00
9709;BME280;4893;42.024;23.098;2022-10-18T03:32:43;98376.19;;;3.79;100.00
9709;BME280;4893;42.024;23.098;2022-10-18T03:35:22;98389.38;;;3.87;100.00
9709;BME280;4893;42.024;23.098;2022-10-18T03:38:23;98386.91;;;3.59;100.00
9709;BME280;4893;42.024;23.098;2022-10-18T03:41:22;98387.34;;;3.66;100.00
9709;BME280;4893;42.024;23.098;2022-10-18T03:44:13;98388.97;;;3.67;100.00
9709;BME280;4893;42.024;23.098;2022-10-18T03:47:07;98373.50;;;3.54;100.00
9709;BME280;4893;42.024;23.098;2022-10-18T03:49:32;98388.53;;;3.60;100.00
9709;BME280;4893;42.024;23.098;2022-10-18T03:52:02;98379.38;;;3.56;100.00
9709;BME280;4893;42.024;23.098;2022-10-18T03:54:28;98380.50;;;3.52;100.00
9709;BME280;4893;42.024;23.098;2022-10-18T03:56:56;98383.88;;;3.53;100.00
9709;BME280;4893;42.024;23.098;2022-10-18T03:59:30;98370.69;;;3.45;100.00
9709;BME280;4893;42.024;23.098;2022-10-18T04:01:57;98381.88;;;3.44;100.00
9709;BME280;4893;42.024;23.098;2022-10-18T04:04:25;98385.53;;;3.54;100.00
9709;BME280;4893;42.024;23.098;2022-10-18T04:07:08;98384.78;;;3.52;100.00
9709;BME280;4893;42.024;23.098;2022-10-18T04:09:36;98381.22;;;3.54;100.00
9709;BME280;4893;42.024;23.098;2022-10-18T04:12:18;98391.69;;;3.51;100.00
9709;BME280;4893;42.024;23.098;2022-10-18T04:14:48;98386.56;;;3.51;100.00
9709;BME280;4893;42.024;23.098;2022-10-18T04:17:19;98379.66;;;3.52;100.00
9709;BME280;4893;42.024;23.098;2022-10-18T04:19:48;98384.88;;;3.50;100.00
9709;BME280;4893;42.024;23.098;2022-10-18T04:22:16;98383.16;;;3.51;100.00
9709;BME280;4893;42.024;23.098;2022-10-18T04:24:44;98384.78;;;3.52;100.00
9709;BME280;4893;42.024;23.098;2022-10-18T04:27:10;98384.63;;;3.55;100.00
9709;BME280;4893;42.024;23.098;2022-10-18T04:29:35;98379.75;;;3.50;100.00
9709;BME280;4893;42.024;23.098;2022-10-18T04:32:03;98375.09;;;3.43;100.00
9709;BME280;4893;42.024;23.098;2022-10-18T04:34:29;98377.38;;;3.47;100.00
9709;BME280;4893;42.024;23.098;2022-10-18T04:36:57;98374.72;;;3.49;100.00
9709;BME280;4893;42.024;23.098;2022-10-18T04:39:22;98383.63;;;3.43;100.00
9709;BME280;4893;42.024;23.098;2022-10-18T04:41:49;98376.94;;;3.41;100.00
9709;BME280;4893;42.024;23.098;2022-10-18T04:44:15;98375.50;;;3.37;100.00
9709;BME280;4893;42.024;23.098;2022-10-18T04:46:40;98374.66;;;3.36;100.00
9709;BME280;4893;42.024;23.098;2022-10-18T04:49:10;98379.06;;;3.34;100.00
9709;BME280;4893;42.024;23.098;2022-10-18T04:51:36;98380.63;;;3.37;100.00
9709;BME280;4893;42.024;23.098;2022-10-18T04:54:01;98384.00;;;3.37;100.00
9709;BME280;4893;42.024;23.098;2022-10-18T04:56:27;98380.97;;;3.31;100.00
9709;BME280;4893;42.024;23.098;2022-10-18T04:59:00;98364.28;;;3.38;100.00
9709;BME280;4893;42.024;23.098;2022-10-18T05:01:28;98376.28;;;3.37;100.00
9709;BME280;4893;42.024;23.098;2022-10-18T05:03:54;98376.59;;;3.33;100.00
9709;BME280;4893;42.024;23.098;2022-10-18T05:06:20;98373.56;;;3.26;100.00
9709;BME280;4893;42.024;23.098;2022-10-18T05:08:48;98370.91;;;3.28;100.00
9709;BME280;4893;42.024;23.098;2022-10-18T05:11:14;98366.59;;;3.28;100.00
9709;BME280;4893;42.024;23.098;2022-10-18T05:13:39;98371.44;;;3.33;100.00
9709;BME280;4893;42.024;23.098;2022-10-18T05:16:05;98357.81;;;3.32;100.00
9709;BME280;4893;42.024;23.098;2022-10-18T05:18:31;98365.13;;;3.38;100.00
9709;BME280;4893;42.024;23.098;2022-10-18T05:20:56;98374.09;;;3.45;100.00
9709;BME280;4893;42.024;23.098;2022-10-18T05:23:22;98370.31;;;3.51;100.00
9709;BME280;4893;42.024;23.098;2022-10-18T05:25:48;98314.38;;;3.15;100.00
9709;BME280;4893;42.024;23.098;2022-10-18T05:28:13;98366.00;;;3.51;100.00
9709;BME280;4893;42.024;23.098;2022-10-18T05:30:39;98362.81;;;3.48;100.00
9709;BME280;4893;42.024;23.098;2022-10-18T05:33:05;98379.28;;;3.58;100.00
9709;BME280;4893;42.024;23.098;2022-10-18T05:35:32;98356.38;;;3.55;100.00
9709;BME280;4893;42.024;23.098;2022-10-18T05:38:04;98382.00;;;3.69;100.00
9709;BME280;4893;42.024;23.098;2022-10-18T05:40:30;98380.38;;;3.68;100.00
9709;BME280;4893;42.024;23.098;2022-10-18T05:42:55;98384.91;;;3.77;100.00
9709;BME280;4893;42.024;23.098;2022-10-18T05:45:20;98384.31;;;3.86;100.00
9709;BME280;4893;42.024;23.098;2022-10-18T05:47:51;98373.13;;;3.87;100.00
9709;BME280;4893;42.024;23.098;2022-10-18T05:50:19;98386.25;;;4.09;100.00
9709;BME280;4893;42.024;23.098;2022-10-18T05:59:50;98386.56;;;4.17;100.00
9709;BME280;4893;42.024;23.098;2022-10-18T06:02:38;98387.78;;;4.51;100.00
9709;BME280;4893;42.024;23.098;2022-10-18T06:05:11;98374.41;;;4.71;100.00
9709;BME280;4893;42.024;23.098;2022-10-18T06:07:37;98380.50;;;7.92;100.00
9709;BME280;4893;42.024;23.098;2022-10-18T06:10:02;98395.31;;;12.51;100.00
9709;BME280;4893;42.024;23.098;2022-10-18T06:12:28;98401.13;;;14.55;89.50
9709;BME280;4893;42.024;23.098;2022-10-18T06:14:53;98405.88;;;17.06;63.84
9709;BME280;4893;42.024;23.098;2022-10-18T06:17:19;98405.63;;;17.73;54.51
9709;BME280;4893;42.024;23.098;2022-10-18T06:19:44;98425.66;;;18.39;50.96
9709;BME280;4893;42.024;23.098;2022-10-18T06:22:10;98410.59;;;18.96;48.93
9709;BME280;4893;42.024;23.098;2022-10-18T06:24:36;98411.53;;;19.16;46.45
9709;BME280;4893;42.024;23.098;2022-10-18T06:27:02;98411.41;;;19.59;45.04
9709;BME280;4893;42.024;23.098;2022-10-18T06:29:34;98411.84;;;18.37;46.04
9709;BME280;4893;42.024;23.098;2022-10-18T06:31:59;98419.41;;;16.80;50.07
9709;BME280;4893;42.024;23.098;2022-10-18T06:34:25;98410.16;;;15.86;52.95
9709;BME280;4893;42.024;23.098;2022-10-18T06:36:50;98411.44;;;16.74;52.57
9709;BME280;4893;42.024;23.098;2022-10-18T06:39:15;98407.31;;;15.65;53.42
9709;BME280;4893;42.024;23.098;2022-10-18T06:41:41;98407.72;;;15.84;53.74
9709;BME280;4893;42.024;23.098;2022-10-18T06:44:08;98415.25;;;15.32;55.19
9709;BME280;4893;42.024;23.098;2022-10-18T06:46:42;98416.50;;;17.27;50.59
9709;BME280;4893;42.024;23.098;2022-10-18T06:49:07;98397.50;;;16.88;51.36
9709;BME280;4893;42.024;23.098;2022-10-18T06:51:33;98401.31;;;17.51;49.27
9709;BME280;4893;42.024;23.098;2022-10-18T06:53:58;98406.06;;;16.67;51.07
9709;BME280;4893;42.024;23.098;2022-10-18T06:56:24;98405.91;;;16.46;52.13
9709;BME280;4893;42.024;23.098;2022-10-18T06:58:49;98401.06;;;16.95;51.36
9709;BME280;4893;42.024;23.098;2022-10-18T07:01:18;98400.53;;;16.99;51.21
9709;BME280;4893;42.024;23.098;2022-10-18T07:03:45;98392.59;;;17.65;49.76
9709;BME280;4893;42.024;23.098;2022-10-18T07:06:12;98389.16;;;16.70;50.66
9709;BME280;4893;42.024;23.098;2022-10-18T07:08:38;98384.72;;;17.65;50.05
9709;BME280;4893;42.024;23.098;2022-10-18T07:11:06;98378.03;;;17.63;49.51
9709;BME280;4893;42.024;23.098;2022-10-18T07:13:32;98388.44;;;16.76;50.36
9709;BME280;4893;42.024;23.098;2022-10-18T07:16:09;98375.78;;;18.52;47.50
9709;BME280;4893;42.024;23.098;2022-10-18T07:18:38;98387.25;;;17.88;48.31
9709;BME280;4893;42.024;23.098;2022-10-18T07:21:05;98381.78;;;16.20;50.67
9709;BME280;4893;42.024;23.098;2022-10-18T07:23:32;98374.63;;;15.91;52.73
9709;BME280;4893;42.024;23.098;2022-10-18T07:25:58;98361.41;;;18.34;48.47
9709;BME280;4893;42.024;23.098;2022-10-18T07:28:25;98322.31;;;19.95;44.68
9709;BME280;4893;42.024;23.098;2022-10-18T07:30:51;98372.22;;;21.66;41.13
9709;BME280;4893;42.024;23.098;2022-10-18T07:33:17;98371.66;;;22.77;39.55
9709;BME280;4893;42.024;23.098;2022-10-18T07:35:42;98363.19;;;19.65;42.40
9709;BME280;4893;42.024;23.098;2022-10-18T07:38:08;98361.34;;;19.59;43.38
9709;BME280;4893;42.024;23.098;2022-10-18T07:40:33;98317.88;;;21.26;41.18
9709;BME280;4893;42.024;23.098;2022-10-18T07:42:58;98318.94;;;20.92;40.24
9709;BME280;4893;42.024;23.098;2022-10-18T07:45:24;98347.56;;;21.28;40.14
9709;BME280;4893;42.024;23.098;2022-10-18T07:47:56;98352.16;;;22.03;39.37
9709;BME280;4893;42.024;23.098;2022-10-18T07:50:22;98337.31;;;21.95;39.81
9709;BME280;4893;42.024;23.098;2022-10-18T07:52:47;98336.97;;;21.34;40.96
9709;BME280;4893;42.024;23.098;2022-10-18T07:55:13;98340.47;;;20.30;41.29
9709;BME280;4893;42.024;23.098;2022-10-18T07:57:38;98338.69;;;20.50;43.06
9709;BME280;4893;42.024;23.098;2022-10-18T08:00:04;98335.41;;;21.07;41.00
9709;BME280;4893;42.024;23.098;2022-10-18T08:02:30;98339.31;;;22.68;39.48
9709;BME280;4893;42.024;23.098;2022-10-18T08:04:55;98327.81;;;23.42;37.95
9709;BME280;4893;42.024;23.098;2022-10-18T08:07:21;98325.16;;;23.89;37.29
9709;BME280;4893;42.024;23.098;2022-10-18T08:09:46;98331.06;;;25.54;35.28
9709;BME280;4893;42.024;23.098;2022-10-18T08:12:11;98327.81;;;25.92;33.85
9709;BME280;4893;42.024;23.098;2022-10-18T08:14:37;98274.06;;;23.94;36.04
9709;BME280;4893;42.024;23.098;2022-10-18T08:17:05;98319.84;;;24.19;36.04
9709;BME280;4893;42.024;23.098;2022-10-18T08:19:31;98322.34;;;25.59;34.20
9709;BME280;4893;42.024;23.098;2022-10-18T08:21:56;98309.09;;;24.55;34.23
9709;BME280;4893;42.024;23.098;2022-10-18T08:24:22;98316.66;;;24.28;36.58
9709;BME280;4893;42.024;23.098;2022-10-18T08:26:48;98304.25;;;22.91;36.65
9709;BME280;4893;42.024;23.098;2022-10-18T08:29:13;98307.50;;;21.81;38.83
9709;BME280;4893;42.024;23.098;2022-10-18T08:31:39;98303.22;;;21.36;40.08
9709;BME280;4893;42.024;23.098;2022-10-18T08:34:04;98301.53;;;22.97;40.02
9709;BME280;4893;42.024;23.098;2022-10-18T08:36:30;98306.59;;;24.83;36.21
9709;BME280;4893;42.024;23.098;2022-10-18T08:38:55;98296.25;;;25.33;35.36
9709;BME280;4893;42.024;23.098;2022-10-18T08:44:06;98290.97;;;26.01;34.69
9709;BME280;4893;42.024;23.098;2022-10-18T08:46:37;98265.59;;;25.98;33.81
9709;BME280;4893;42.024;23.098;2022-10-18T08:49:10;98276.53;;;22.44;38.07
9709;BME280;4893;42.024;23.098;2022-10-18T08:51:44;98263.63;;;21.98;39.07
9709;BME280;4893;42.024;23.098;2022-10-18T08:54:14;98267.97;;;23.75;37.32
9709;BME280;4893;42.024;23.098;2022-10-18T08:56:42;98263.44;;;25.16;35.20
9709;BME280;4893;42.024;23.098;2022-10-18T08:59:10;98259.91;;;26.06;34.13
9709;BME280;4893;42.024;23.098;2022-10-18T09:02:10;98256.41;;;26.88;32.99
9709;BME280;4893;42.024;23.098;2022-10-18T09:04:51;98251.00;;;26.01;34.51
9709;BME280;4893;42.024;23.098;2022-10-18T09:07:45;98253.91;;;23.45;37.48
9709;BME280;4893;42.024;23.098;2022-10-18T09:10:35;98257.22;;;24.99;35.31
9709;BME280;4893;42.024;23.098;2022-10-18T09:26:15;98213.44;;;24.90;35.73
9709;BME280;4893;42.024;23.098;2022-10-18T09:31:39;98222.53;;;24.94;36.16
9709;BME280;4893;42.024;23.098;2022-10-18T09:36:55;98187.34;;;26.70;32.18
9709;BME280;4893;42.024;23.098;2022-10-18T09:39:28;98204.38;;;27.51;31.89
9709;BME280;4893;42.024;23.098;2022-10-18T09:44:35;98205.28;;;28.19;30.70
9709;BME280;4893;42.024;23.098;2022-10-18T09:47:11;98188.03;;;28.37;30.36
9709;BME280;4893;42.024;23.098;2022-10-18T09:49:51;98179.22;;;28.31;30.52
9709;BME280;4893;42.024;23.098;2022-10-18T09:52:30;98170.38;;;27.19;31.69
9709;BME280;4893;42.024;23.098;2022-10-18T09:55:02;98177.97;;;27.28;31.71
9709;BME280;4893;42.024;23.098;2022-10-18T09:57:36;98146.97;;;28.11;30.71
9709;BME280;4893;42.024;23.098;2022-10-18T10:00:16;98163.38;;;25.54;33.25
9709;BME280;4893;42.024;23.098;2022-10-18T10:02:43;98141.66;;;24.90;34.33
9709;BME280;4893;42.024;23.098;2022-10-18T10:05:11;98163.69;;;25.30;32.02
9709;BME280;4893;42.024;23.098;2022-10-18T10:07:42;98153.59;;;24.52;33.76
9709;BME280;4893;42.024;23.098;2022-10-18T10:10:16;98155.13;;;25.28;33.08
9709;BME280;4893;42.024;23.098;2022-10-18T10:12:44;98139.66;;;25.53;32.79
9709;BME280;4893;42.024;23.098;2022-10-18T10:15:24;98133.50;;;25.24;33.11
9709;BME280;4893;42.024;23.098;2022-10-18T10:17:56;98113.25;;;25.07;33.13
9709;BME280;4893;42.024;23.098;2022-10-18T10:20:27;98121.34;;;25.40;33.58
9709;BME280;4893;42.024;23.098;2022-10-18T10:23:04;98095.78;;;25.11;34.74
9709;BME280;4893;42.024;23.098;2022-10-18T10:25:33;98105.81;;;22.47;35.78
9709;BME280;4893;42.024;23.098;2022-10-18T10:28:12;98101.53;;;22.64;35.21
9709;BME280;4893;42.024;23.098;2022-10-18T10:30:38;98066.41;;;21.96;35.65
9709;BME280;4893;42.024;23.098;2022-10-18T10:33:05;98094.94;;;21.94;36.52
9709;BME280;4893;42.024;23.098;2022-10-18T10:35:33;98080.88;;;21.13;37.64
9709;BME280;4893;42.024;23.098;2022-10-18T10:38:00;98072.41;;;21.05;38.37
9709;BME280;4893;42.024;23.098;2022-10-18T10:40:30;98072.00;;;21.32;38.21
9709;BME280;4893;42.024;23.098;2022-10-18T10:43:02;98063.47;;;21.06;37.31
9709;BME280;4893;42.024;23.098;2022-10-18T10:45:41;98048.41;;;19.98;38.21
9709;BME280;4893;42.024;23.098;2022-10-18T10:48:15;98052.41;;;18.77;39.41
9709;BME280;4893;42.024;23.098;2022-10-18T10:53:28;98047.97;;;19.03;41.50
9709;BME280;4893;42.024;23.098;2022-10-18T10:55:55;97980.94;;;18.86;40.83
9709;BME280;4893;42.024;23.098;2022-10-18T10:58:22;97979.88;;;18.68;40.40
9709;BME280;4893;42.024;23.098;2022-10-18T11:00:47;98011.50;;;18.87;40.32
9709;BME280;4893;42.024;23.098;2022-10-18T11:03:15;98020.88;;;19.16;40.99
9709;BME280;4893;42.024;23.098;2022-10-18T11:05:47;98015.38;;;18.91;42.36
9709;BME280;4893;42.024;23.098;2022-10-18T11:08:17;98006.25;;;19.13;41.12
9709;BME280;4893;42.024;23.098;2022-10-18T11:10:59;97998.41;;;19.33;41.68
9709;BME280;4893;42.024;23.098;2022-10-18T11:16:31;97982.19;;;19.29;40.69
9709;BME280;4893;42.024;23.098;2022-10-18T11:18:58;97975.06;;;19.10;40.50
9709;BME280;4893;42.024;23.098;2022-10-18T11:21:30;97972.63;;;18.89;41.56
9709;BME280;4893;42.024;23.098;2022-10-18T11:23:56;97977.91;;;19.15;41.99
9709;BME280;4893;42.024;23.098;2022-10-18T11:40:00;97938.97;;;19.57;40.99
9709;BME280;4893;42.024;23.098;2022-10-18T11:56:24;97904.69;;;19.57;42.76
9709;BME280;4893;42.024;23.098;2022-10-18T12:04:49;97887.91;;;19.51;42.17
9709;BME280;4893;42.024;23.098;2022-10-18T12:07:17;97889.03;;;19.68;41.19
9709;BME280;4893;42.024;23.098;2022-10-18T12:09:46;97853.81;;;19.56;39.92
9709;BME280;4893;42.024;23.098;2022-10-18T12:12:52;97874.03;;;19.75;42.15
9709;BME280;4893;42.024;23.098;2022-10-18T12:15:23;97830.75;;;19.52;41.37
9709;BME280;4893;42.024;23.098;2022-10-18T12:17:54;97872.66;;;20.04;40.04
9709;BME280;4893;42.024;23.098;2022-10-18T12:20:31;97868.25;;;19.98;41.57
9709;BME280;4893;42.024;23.098;2022-10-18T12:23:15;97834.69;;;19.74;40.73
9709;BME280;4893;42.024;23.098;2022-10-18T12:25:48;97852.47;;;19.85;39.17
9709;BME280;4893;42.024;23.098;2022-10-18T12:31:02;97842.69;;;19.98;38.77
9709;BME280;4893;42.024;23.098;2022-10-18T12:33:38;97843.88;;;20.02;40.03
9709;BME280;4893;42.024;23.098;2022-10-18T12:36:22;97837.75;;;20.15;39.96
9709;BME280;4893;42.024;23.098;2022-10-18T12:38:57;97830.41;;;20.17;40.00
9709;BME280;4893;42.024;23.098;2022-10-18T12:41:27;97833.91;;;20.04;39.69
9709;BME280;4893;42.024;23.098;2022-10-18T12:44:17;97836.50;;;20.11;38.95
9709;BME280;4893;42.024;23.098;2022-10-18T12:46:47;97813.38;;;20.13;40.65
9709;BME280;4893;42.024;23.098;2022-10-18T12:49:19;97781.16;;;20.04;40.10
9709;BME280;4893;42.024;23.098;2022-10-18T12:51:58;97813.75;;;20.23;41.04
9709;BME280;4893;42.024;23.098;2022-10-18T12:54:28;97814.06;;;20.33;38.81
9709;BME280;4893;42.024;23.098;2022-10-18T12:56:54;97804.22;;;20.46;38.31
9709;BME280;4893;42.024;23.098;2022-10-18T13:09:23;97773.69;;;20.32;39.52
9709;BME280;4893;42.024;23.098;2022-10-18T13:11:49;97787.63;;;20.39;39.72
9709;BME280;4893;42.024;23.098;2022-10-18T13:19:56;97775.63;;;20.19;40.76
9709;BME280;4893;42.024;23.098;2022-10-18T13:22:39;97767.66;;;20.25;39.80
9709;BME280;4893;42.024;23.098;2022-10-18T13:30:56;97714.81;;;19.76;40.62
9709;BME280;4893;42.024;23.098;2022-10-18T13:44:34;97743.22;;;19.74;42.14
9709;BME280;4893;42.024;23.098;2022-10-18T13:49:38;97739.44;;;19.64;42.23
9709;BME280;4893;42.024;23.098;2022-10-18T13:57:57;97728.16;;;19.50;42.14
9709;BME280;4893;42.024;23.098;2022-10-18T14:00:59;97734.84;;;19.53;39.47
9709;BME280;4893;42.024;23.098;2022-10-18T14:03:54;97726.69;;;19.61;40.21
9709;BME280;4893;42.024;23.098;2022-10-18T14:06:41;97722.25;;;19.55;40.55
9709;BME280;4893;42.024;23.098;2022-10-18T14:09:22;97547.97;;;18.38;44.63
9709;BME280;4893;42.024;23.098;2022-10-18T14:11:55;97719.94;;;19.34;42.49
9709;BME280;4893;42.024;23.098;2022-10-18T14:14:30;97696.66;;;19.31;40.70
9709;BME280;4893;42.024;23.098;2022-10-18T14:19:56;97699.91;;;19.19;45.82
9709;BME280;4893;42.024;23.098;2022-10-18T14:22:40;97712.31;;;19.12;45.97
9709;BME280;4893;42.024;23.098;2022-10-18T14:25:39;97704.88;;;18.96;44.66
9709;BME280;4893;42.024;23.098;2022-10-18T14:28:33;97701.69;;;18.81;47.12
9709;BME280;4893;42.024;23.098;2022-10-18T14:31:02;97698.44;;;18.73;49.10
9709;BME280;4893;42.024;23.098;2022-10-18T14:33:37;97690.38;;;18.61;48.29
9709;BME280;4893;42.024;23.098;2022-10-18T14:36:14;97683.94;;;18.51;48.23
9709;BME280;4893;42.024;23.098;2022-10-18T14:38:52;97683.13;;;18.44;49.94
9709;BME280;4893;42.024;23.098;2022-10-18T14:43:44;97674.47;;;18.17;52.79
9709;BME280;4893;42.024;23.098;2022-10-18T14:46:19;97681.94;;;17.94;55.13
9709;BME280;4893;42.024;23.098;2022-10-18T14:49:00;97678.28;;;17.75;57.23
9709;BME280;4893;42.024;23.098;2022-10-18T14:51:34;97661.69;;;17.49;59.66
9709;BME280;4893;42.024;23.098;2022-10-18T14:54:14;97673.34;;;17.40;65.04
9709;BME280;4893;42.024;23.098;2022-10-18T14:56:40;97670.91;;;17.25;64.65
9709;BME280;4893;42.024;23.098;2022-10-18T15:02:15;97667.16;;;16.87;67.92
9709;BME280;4893;42.024;23.098;2022-10-18T15:04:45;97665.41;;;16.67;68.41
9709;BME280;4893;42.024;23.098;2022-10-18T15:07:16;97632.56;;;16.36;69.11
9709;BME280;4893;42.024;23.098;2022-10-18T15:09:42;97664.72;;;16.45;66.70
9709;BME280;4893;42.024;23.098;2022-10-18T15:12:11;97665.03;;;16.35;68.29
9709;BME280;4893;42.024;23.098;2022-10-18T15:14:54;97647.34;;;16.16;69.46
9709;BME280;4893;42.024;23.098;2022-10-18T15:17:25;97661.72;;;16.20;67.34
9709;BME280;4893;42.024;23.098;2022-10-18T15:20:01;97665.47;;;16.11;66.43
9709;BME280;4893;42.024;23.098;2022-10-18T15:22:29;97658.47;;;15.91;68.09
9709;BME280;4893;42.024;23.098;2022-10-18T15:25:08;97600.75;;;15.36;66.11
9709;BME280;4893;42.024;23.098;2022-10-18T15:27:37;97639.59;;;15.53;65.98
9709;BME280;4893;42.024;23.098;2022-10-18T15:30:28;97633.13;;;15.49;65.44
9709;BME280;4893;42.024;23.098;2022-10-18T15:33:02;97631.38;;;15.35;65.69
9709;BME280;4893;42.024;23.098;2022-10-18T15:35:33;97656.28;;;15.31;65.48
9709;BME280;4893;42.024;23.098;2022-10-18T15:38:25;97656.22;;;15.24;65.73
9709;BME280;4893;42.024;23.098;2022-10-18T15:40:51;97652.81;;;15.09;66.86
9709;BME280;4893;42.024;23.098;2022-10-18T15:46:00;97660.81;;;14.87;66.85
9709;BME280;4893;42.024;23.098;2022-10-18T15:48:39;97657.00;;;14.68;69.62
9709;BME280;4893;42.024;23.098;2022-10-18T15:51:22;97654.81;;;14.43;67.96
9709;BME280;4893;42.024;23.098;2022-10-18T15:54:00;97653.66;;;14.31;68.46
9709;BME280;4893;42.024;23.098;2022-10-18T15:56:35;97634.97;;;14.05;68.71
9709;BME280;4893;42.024;23.098;2022-10-18T15:59:20;97646.25;;;14.20;67.52
9709;BME280;4893;42.024;23.098;2022-10-18T16:02:16;97649.41;;;14.15;68.55
9709;BME280;4893;42.024;23.098;2022-10-18T16:04:42;97654.34;;;13.96;68.29
9709;BME280;4893;42.024;23.098;2022-10-18T16:07:16;97644.22;;;13.92;66.96
9709;BME280;4893;42.024;23.098;2022-10-18T16:09:42;97657.13;;;14.09;66.55
9709;BME280;4893;42.024;23.098;2022-10-18T16:12:21;97656.59;;;14.13;66.76
9709;BME280;4893;42.024;23.098;2022-10-18T16:14:46;97663.53;;;14.21;64.36
9709;BME280;4893;42.024;23.098;2022-10-18T16:17:14;97663.34;;;14.22;64.87
9709;BME280;4893;42.024;23.098;2022-10-18T16:19:55;97660.56;;;14.24;64.80
9709;BME280;4893;42.024;23.098;2022-10-18T16:22:20;97661.31;;;14.32;63.95
9709;BME280;4893;42.024;23.098;2022-10-18T16:24:47;97670.69;;;14.27;64.81